Time;durP1;ratioP1;P1;durP2;ratioP2;P2;SDS_P1;SDS_P2;PMS_P1;PMS_P2;Temp;Humidity;BMP_temperature;BMP_pressure;BME280_temperature;BME280_humidity;BME280_pressure;Samples;Min_cycle;Max_cycle;Signal;HPM_P1;HPM_P2
2023/05/11 00:00:28;;;;;;;2.50;2.30;;;18.40;64.20;;;;;;5114319;28;20248;-61
2023/05/11 00:02:54;;;;;;;3.15;2.30;;;18.40;64.10;;;;;;5113763;28;20253;-61
2023/05/11 00:05:19;;;;;;;2.22;2.00;;;18.40;64.20;;;;;;5114166;28;20772;-62
2023/05/11 00:07:45;;;;;;;2.42;2.22;;;18.40;64.20;;;;;;5114365;28;20180;-61
2023/05/11 00:10:10;;;;;;;2.30;2.10;;;18.40;64.20;;;;;;5113282;28;20226;-61
2023/05/11 00:12:36;;;;;;;2.40;2.17;;;18.40;64.20;;;;;;5114457;28;20177;-60
2023/05/11 00:15:02;;;;;;;3.05;2.40;;;18.40;64.20;;;;;;5114385;28;20173;-60
2023/05/11 00:17:27;;;;;;;2.45;2.25;;;18.50;64.30;;;;;;5113266;28;20184;-60
2023/05/11 00:19:53;;;;;;;2.72;2.25;;;18.40;64.30;;;;;;5114162;28;20169;-60
2023/05/11 00:22:18;;;;;;;2.33;2.13;;;18.40;64.20;;;;;;5113784;28;20224;-60
2023/05/11 00:24:44;;;;;;;2.40;2.20;;;18.40;64.20;;;;;;5113504;28;20566;-60
2023/05/11 00:27:09;;;;;;;2.45;2.25;;;18.50;64.30;;;;;;5113711;28;20706;-61
2023/05/11 00:29:35;;;;;;;2.40;2.20;;;18.40;64.20;;;;;;5114168;28;20165;-62
2023/05/11 00:32:00;;;;;;;2.58;2.38;;;18.40;64.20;;;;;;5113235;28;20718;-61
2023/05/11 00:34:26;;;;;;;2.60;2.40;;;18.40;64.20;;;;;;5113641;28;20218;-61
2023/05/11 00:36:51;;;;;;;2.40;2.20;;;18.50;64.30;;;;;;5113879;28;20627;-61
2023/05/11 00:39:17;;;;;;;3.35;2.65;;;18.40;64.20;;;;;;5113076;28;20511;-60
2023/05/11 00:41:42;;;;;;;3.25;2.40;;;18.40;64.20;;;;;;5113798;28;20643;-60
2023/05/11 00:44:08;;;;;;;2.38;2.17;;;18.40;64.20;;;;;;5113733;28;20171;-60
2023/05/11 00:46:33;;;;;;;2.80;2.60;;;18.40;64.20;;;;;;5112868;28;20200;-60
2023/05/11 00:48:59;;;;;;;2.70;2.50;;;18.40;64.20;;;;;;5113779;28;20514;-60
2023/05/11 00:51:25;;;;;;;2.72;2.53;;;18.40;64.20;;;;;;5113347;28;20724;-60
2023/05/11 00:53:50;;;;;;;2.40;2.20;;;18.40;64.20;;;;;;5112889;28;20180;-60
2023/05/11 00:56:16;;;;;;;2.10;1.92;;;18.40;64.30;;;;;;5113300;28;20222;-60
2023/05/11 00:58:41;;;;;;;2.53;2.30;;;18.40;64.20;;;;;;5113714;28;20161;-61
2023/05/11 01:01:07;;;;;;;2.55;2.22;;;18.40;64.20;;;;;;5111570;28;20180;-60
2023/05/11 01:03:33;;;;;;;2.50;2.30;;;18.40;64.20;;;;;;5113682;28;20173;-61
2023/05/11 01:06:17;;;;;;;2.92;2.63;;;18.40;64.20;;;;;;5113328;28;20263;-61
2023/05/11 01:08:49;;;;;;;2.35;2.15;;;18.40;64.30;;;;;;5112184;28;20665;-61
2023/05/11 01:11:36;;;;;;;2.47;2.28;;;18.40;64.30;;;;;;5111844;28;20639;-60
2023/05/11 01:14:05;;;;;;;2.35;2.15;;;18.40;64.30;;;;;;5111624;28;20719;-60
2023/05/11 01:16:32;;;;;;;2.45;2.25;;;18.40;64.30;;;;;;5112024;28;20196;-61
2023/05/11 01:19:00;;;;;;;3.05;2.75;;;18.40;64.30;;;;;;5112397;28;20245;-60
2023/05/11 01:21:32;;;;;;;3.03;2.78;;;18.40;64.30;;;;;;5112444;28;20227;-60
2023/05/11 01:24:12;;;;;;;2.85;2.55;;;18.40;64.30;;;;;;5113293;28;20260;-60
2023/05/11 01:26:59;;;;;;;2.40;2.20;;;18.40;64.30;;;;;;5113234;28;20253;-60
2023/05/11 01:29:49;;;;;;;2.60;2.40;;;18.40;64.30;;;;;;5112467;28;20271;-61
2023/05/11 01:32:22;;;;;;;2.35;2.15;;;18.40;64.30;;;;;;5112827;28;20187;-61
2023/05/11 01:34:49;;;;;;;2.60;2.40;;;18.40;64.30;;;;;;5112534;28;20173;-61
2023/05/11 01:37:18;;;;;;;2.60;2.40;;;18.40;64.30;;;;;;5111784;28;20177;-60
2023/05/11 01:39:55;;;;;;;2.85;2.63;;;18.30;64.20;;;;;;5112247;28;20527;-60
2023/05/11 01:42:23;;;;;;;2.50;2.30;;;18.30;64.20;;;;;;5112347;28;20177;-60
2023/05/11 01:44:50;;;;;;;3.63;3.17;;;18.30;64.30;;;;;;5111821;28;20173;-60
2023/05/11 01:47:16;;;;;;;2.70;2.50;;;18.30;64.30;;;;;;5111515;28;20683;-60
2023/05/11 01:49:41;;;;;;;2.50;2.30;;;18.30;64.20;;;;;;5111184;28;20184;-61
2023/05/11 01:52:07;;;;;;;2.70;2.50;;;18.30;64.20;;;;;;5111469;28;20298;-60
2023/05/11 01:54:33;;;;;;;2.60;2.40;;;18.30;64.30;;;;;;5112031;28;20230;-60
2023/05/11 01:56:59;;;;;;;2.80;2.60;;;18.30;64.20;;;;;;5111195;28;20222;-60
2023/05/11 01:59:25;;;;;;;2.70;2.50;;;18.40;64.30;;;;;;5114400;28;20512;-61
2023/05/11 02:01:50;;;;;;;3.08;2.78;;;18.30;64.20;;;;;;5117027;28;20252;-61
2023/05/11 02:04:16;;;;;;;3.15;2.88;;;18.30;64.20;;;;;;5115863;28;20238;-61
2023/05/11 02:06:42;;;;;;;2.80;2.60;;;18.30;64.20;;;;;;5115500;28;20670;-61
2023/05/11 02:09:08;;;;;;;2.80;2.60;;;18.30;64.30;;;;;;5115270;28;20574;-60
2023/05/11 02:11:34;;;;;;;2.65;2.45;;;18.30;64.30;;;;;;5114781;28;20286;-60
2023/05/11 02:13:59;;;;;;;3.10;2.78;;;18.30;64.30;;;;;;5115584;28;20173;-59
2023/05/11 02:16:26;;;;;;;2.78;2.55;;;18.30;64.30;;;;;;5114733;28;20173;-60
2023/05/11 02:18:52;;;;;;;2.67;2.47;;;18.30;64.30;;;;;;5116531;28;20169;-59
2023/05/11 02:21:18;;;;;;;2.75;2.55;;;18.30;64.30;;;;;;5115043;28;20180;-60
2023/05/11 02:23:45;;;;;;;2.70;2.50;;;18.30;64.30;;;;;;5115579;28;20221;-60
2023/05/11 02:26:11;;;;;;;2.67;2.47;;;18.30;64.30;;;;;;5114978;28;20220;-60
2023/05/11 02:28:36;;;;;;;2.70;2.50;;;18.30;64.30;;;;;;5115418;28;20171;-61
2023/05/11 02:31:05;;;;;;;2.45;2.25;;;18.30;64.30;;;;;;5114480;28;20255;-61
2023/05/11 02:33:33;;;;;;;2.42;2.22;;;18.30;64.30;;;;;;5115075;28;20644;-61
2023/05/11 02:35:59;;;;;;;2.67;2.47;;;18.30;64.30;;;;;;5116469;28;20268;-60
2023/05/11 02:38:27;;;;;;;2.95;2.75;;;18.30;65.10;;;;;;5114206;28;20260;-60
2023/05/11 02:40:55;;;;;;;2.78;2.40;;;18.30;64.30;;;;;;5115115;28;20267;-60
2023/05/11 02:43:24;;;;;;;2.60;2.40;;;18.30;64.30;;;;;;5114704;28;20181;-60
2023/05/11 02:45:51;;;;;;;2.65;2.45;;;18.30;64.30;;;;;;5114008;28;20690;-60
2023/05/11 02:48:28;;;;;;;2.90;2.60;;;18.30;64.30;;;;;;5114432;28;20260;-60
2023/05/11 02:50:54;;;;;;;2.58;2.38;;;18.30;64.30;;;;;;5114985;28;20173;-60
2023/05/11 02:53:20;;;;;;;2.60;2.40;;;18.30;64.30;;;;;;5113915;28;20237;-60
2023/05/11 02:55:46;;;;;;;2.53;2.33;;;18.30;64.30;;;;;;5115947;28;20177;-60
2023/05/11 02:58:11;;;;;;;2.35;2.15;;;18.30;64.30;;;;;;5114265;28;20183;-60
2023/05/11 03:00:38;;;;;;;2.67;2.47;;;18.20;64.20;;;;;;5113676;28;20256;-60
2023/05/11 03:03:03;;;;;;;2.80;2.60;;;18.30;64.30;;;;;;5115910;28;20177;-61
2023/05/11 03:05:29;;;;;;;2.65;2.45;;;18.30;64.30;;;;;;5113997;28;20197;-61
2023/05/11 03:07:56;;;;;;;2.25;2.05;;;18.30;64.30;;;;;;5114923;28;20628;-60
2023/05/11 03:10:22;;;;;;;2.40;2.20;;;18.30;64.30;;;;;;5113744;28;20658;-60
2023/05/11 03:12:47;;;;;;;2.60;2.15;;;18.30;64.30;;;;;;5113387;28;20188;-61
2023/05/11 03:15:13;;;;;;;2.70;2.50;;;18.30;64.30;;;;;;5115158;28;20263;-60
2023/05/11 03:17:39;;;;;;;2.50;2.30;;;18.30;64.30;;;;;;5114383;28;20256;-60
2023/05/11 03:20:06;;;;;;;2.60;2.20;;;18.30;64.30;;;;;;5113470;28;20607;-60
2023/05/11 03:22:31;;;;;;;2.70;2.50;;;18.20;64.20;;;;;;5114409;28;20233;-60
2023/05/11 03:24:57;;;;;;;2.63;2.42;;;18.20;64.30;;;;;;5114169;28;20271;-60
2023/05/11 03:27:22;;;;;;;2.60;2.40;;;18.20;64.20;;;;;;5112990;28;20216;-60
2023/05/11 03:29:48;;;;;;;2.53;2.35;;;18.20;64.30;;;;;;5113931;28;20161;-61
2023/05/11 03:32:13;;;;;;;2.55;2.33;;;18.20;64.20;;;;;;5113759;28;20169;-61
2023/05/11 03:34:39;;;;;;;1.95;1.85;;;18.20;64.20;;;;;;5114424;28;20165;-61
2023/05/11 03:37:09;;;;;;;2.38;2.17;;;18.30;64.30;;;;;;5114899;28;20169;-60
2023/05/11 03:39:35;;;;;;;2.53;2.33;;;18.20;64.20;;;;;;5113983;28;20177;-60
2023/05/11 03:42:00;;;;;;;2.53;2.33;;;18.20;64.20;;;;;;5113182;28;20535;-60
2023/05/11 03:44:26;;;;;;;2.33;2.15;;;18.20;64.20;;;;;;5113417;28;20177;-60
2023/05/11 03:46:51;;;;;;;2.47;2.28;;;18.20;64.20;;;;;;5113646;28;20209;-60
2023/05/11 03:49:17;;;;;;;2.63;2.08;;;18.20;64.20;;;;;;5112779;28;20532;-60
2023/05/11 03:51:43;;;;;;;2.25;2.15;;;18.20;64.20;;;;;;5113461;28;20631;-61
2023/05/11 03:54:09;;;;;;;2.50;2.13;;;18.20;64.30;;;;;;5113306;28;20173;-60
2023/05/11 03:56:35;;;;;;;2.50;2.30;;;18.20;64.30;;;;;;5095891;28;20169;-60
2023/05/11 03:59:02;;;;;;;1.77;1.67;;;18.20;64.20;;;;;;5114554;28;20548;-60
2023/05/11 04:01:28;;;;;;;2.42;2.25;;;18.20;64.20;;;;;;5114532;28;20183;-60
2023/05/11 04:03:53;;;;;;;2.10;2.00;;;18.20;64.20;;;;;;5113940;28;20173;-61
2023/05/11 04:06:19;;;;;;;2.10;2.00;;;18.20;64.30;;;;;;5114259;28;20201;-61
2023/05/11 04:08:45;;;;;;;2.40;2.20;;;18.20;64.20;;;;;;5114465;28;20201;-60
2023/05/11 04:11:10;;;;;;;2.28;2.17;;;18.20;64.20;;;;;;5113364;28;20632;-60
2023/05/11 04:13:36;;;;;;;2.42;2.22;;;18.20;64.20;;;;;;5114113;28;20639;-60
2023/05/11 04:16:01;;;;;;;2.25;2.15;;;18.20;64.20;;;;;;5113698;28;20222;-60
2023/05/11 04:18:28;;;;;;;2.33;2.20;;;18.20;65.00;;;;;;5114121;28;20173;-60
2023/05/11 04:20:53;;;;;;;2.40;2.20;;;18.20;64.30;;;;;;5113805;28;20180;-60
2023/05/11 04:23:19;;;;;;;2.35;2.20;;;18.20;64.20;;;;;;5112752;28;20339;-61
2023/05/11 04:25:44;;;;;;;2.42;2.22;;;18.20;64.20;;;;;;5113867;28;20261;-60
2023/05/11 04:28:10;;;;;;;2.47;2.30;;;18.20;64.20;;;;;;5113836;28;20226;-60
2023/05/11 04:30:35;;;;;;;2.38;2.17;;;18.20;64.30;;;;;;5113793;28;20173;-61
2023/05/11 04:33:01;;;;;;;2.50;2.30;;;18.20;64.30;;;;;;5114084;28;20512;-61
2023/05/11 04:35:26;;;;;;;2.65;2.05;;;18.20;64.20;;;;;;5113637;28;20564;-60
2023/05/11 04:37:52;;;;;;;2.58;2.35;;;18.20;64.20;;;;;;5113151;28;20608;-60
2023/05/11 04:40:18;;;;;;;2.63;2.40;;;18.20;64.20;;;;;;5113577;28;20177;-61
2023/05/11 04:42:43;;;;;;;2.13;1.90;;;18.20;64.20;;;;;;5113697;28;20168;-61
2023/05/11 04:45:09;;;;;;;2.42;2.22;;;18.20;64.30;;;;;;5112974;28;20173;-60
2023/05/11 04:47:34;;;;;;;2.55;2.35;;;18.20;64.30;;;;;;5113696;28;20188;-61
2023/05/11 04:50:00;;;;;;;2.50;2.30;;;18.20;64.20;;;;;;5113824;28;20255;-61
2023/05/11 04:52:26;;;;;;;2.58;2.38;;;18.20;64.30;;;;;;5112717;28;20173;-61
2023/05/11 04:54:51;;;;;;;2.10;1.92;;;18.20;65.00;;;;;;5113611;28;20646;-60
2023/05/11 04:57:17;;;;;;;2.15;2.00;;;18.20;64.20;;;;;;5113324;28;20666;-61
2023/05/11 04:59:43;;;;;;;2.10;2.00;;;18.20;64.20;;;;;;5113095;28;20193;-61
2023/05/11 05:02:08;;;;;;;2.65;2.45;;;18.20;64.20;;;;;;5113455;28;20173;-61
2023/05/11 05:04:33;;;;;;;2.50;2.30;;;18.20;64.30;;;;;;5113720;28;20176;-61
2023/05/11 05:06:59;;;;;;;2.05;1.90;;;18.20;64.20;;;;;;5112695;28;20208;-61
2023/05/11 05:09:25;;;;;;;2.15;2.05;;;18.20;64.20;;;;;;5113205;28;20173;-60
2023/05/11 05:11:50;;;;;;;2.53;2.33;;;18.20;64.30;;;;;;5113454;28;20205;-60
2023/05/11 05:14:16;;;;;;;2.63;2.42;;;18.20;64.20;;;;;;5112569;28;20179;-60
2023/05/11 05:16:41;;;;;;;2.03;1.92;;;18.20;64.20;;;;;;5113638;28;20195;-60
2023/05/11 05:19:08;;;;;;;2.70;2.50;;;18.20;64.20;;;;;;5113032;28;20550;-60
2023/05/11 05:21:34;;;;;;;2.33;2.13;;;18.20;64.20;;;;;;5112768;28;20651;-60
2023/05/11 05:24:00;;;;;;;2.35;2.17;;;18.20;64.20;;;;;;5113203;28;20231;-60
2023/05/11 05:26:26;;;;;;;2.45;2.25;;;18.20;64.20;;;;;;5112244;28;20665;-60
2023/05/11 05:28:51;;;;;;;2.70;2.50;;;18.20;64.20;;;;;;5113429;28;20177;-61
2023/05/11 05:31:17;;;;;;;2.35;2.15;;;18.20;64.20;;;;;;5113145;28;20221;-61
2023/05/11 05:33:43;;;;;;;2.20;2.08;;;18.20;64.20;;;;;;5113268;28;20173;-61
2023/05/11 05:36:08;;;;;;;2.20;2.10;;;18.20;64.20;;;;;;5117374;28;20510;-61
2023/05/11 05:38:34;;;;;;;2.30;2.05;;;18.20;64.20;;;;;;5117425;28;20305;-61
2023/05/11 05:40:59;;;;;;;2.42;2.10;;;18.20;64.30;;;;;;5116616;28;20608;-61
2023/05/11 05:43:25;;;;;;;2.28;2.15;;;18.20;64.30;;;;;;5117245;28;20727;-60
2023/05/11 05:45:51;;;;;;;2.38;2.17;;;18.20;64.30;;;;;;5117339;28;20193;-61
2023/05/11 05:48:16;;;;;;;2.70;2.47;;;18.20;64.40;;;;;;5116362;28;20177;-61
2023/05/11 05:50:42;;;;;;;2.10;2.00;;;18.20;64.40;;;;;;5117453;28;20181;-61
2023/05/11 05:53:07;;;;;;;2.58;2.38;;;18.20;64.30;;;;;;5116816;28;20176;-60
2023/05/11 05:55:33;;;;;;;2.38;2.17;;;18.20;64.40;;;;;;5116398;28;20223;-61
2023/05/11 05:57:58;;;;;;;2.50;2.30;;;18.10;64.30;;;;;;5116919;28;20165;-61
2023/05/11 06:00:24;;;;;;;2.28;2.08;;;18.20;64.40;;;;;;5116666;28;20177;-61
2023/05/11 06:02:49;;;;;;;2.03;1.92;;;18.20;64.50;;;;;;5116480;28;20170;-62
2023/05/11 06:05:15;;;;;;;2.00;1.90;;;18.20;64.50;;;;;;5116509;28;20175;-62
2023/05/11 06:07:40;;;;;;;2.20;2.10;;;18.20;64.50;;;;;;5116969;28;20268;-61
2023/05/11 06:10:06;;;;;;;2.15;2.05;;;18.20;64.60;;;;;;5115608;28;20260;-62
2023/05/11 06:12:31;;;;;;;2.20;2.05;;;18.20;64.80;;;;;;5116579;28;20245;-61
2023/05/11 06:14:57;;;;;;;4.07;1.95;;;18.20;64.60;;;;;;5116550;28;20624;-61
2023/05/11 06:17:22;;;;;;;2.40;2.20;;;18.30;65.40;;;;;;5115438;28;20169;-61
2023/05/11 06:19:48;;;;;;;2.40;2.20;;;18.30;64.70;;;;;;5116651;28;20225;-61
2023/05/11 06:22:14;;;;;;;2.40;2.20;;;18.30;64.70;;;;;;5116038;27;20690;-61
2023/05/11 06:24:39;;;;;;;2.33;2.22;;;18.30;64.50;;;;;;5115765;28;20181;-61
2023/05/11 06:27:05;;;;;;;2.20;2.10;;;18.30;64.50;;;;;;5116026;28;20203;-62
2023/05/11 06:29:31;;;;;;;2.15;1.95;;;18.30;64.70;;;;;;5116568;28;20177;-63
2023/05/11 06:31:57;;;;;;;2.03;1.92;;;18.30;64.70;;;;;;5115756;28;20611;-62
2023/05/11 06:34:23;;;;;;;2.35;2.08;;;18.30;64.90;;;;;;5116447;28;20192;-65
2023/05/11 06:36:48;;;;;;;2.00;1.88;;;18.40;65.00;;;;;;5115550;28;20636;-62
2023/05/11 06:39:14;;;;;;;2.47;2.00;;;18.40;65.00;;;;;;5115910;28;20169;-62
2023/05/11 06:41:39;;;;;;;2.05;1.95;;;18.40;64.80;;;;;;5116142;28;20180;-62
2023/05/11 06:44:05;;;;;;;2.30;2.10;;;18.40;64.80;;;;;;5114392;28;20170;-64
2023/05/11 06:46:31;;;;;;;2.47;1.80;;;18.40;64.80;;;;;;5116098;28;20217;-62
2023/05/11 06:48:56;;;;;;;1.95;1.85;;;18.50;64.80;;;;;;5116317;28;20169;-62
2023/05/11 06:51:22;;;;;;;1.90;1.80;;;18.50;64.80;;;;;;5115068;28;20254;-61
2023/05/11 06:53:48;;;;;;;2.55;1.80;;;18.50;64.90;;;;;;5115606;28;20169;-61
2023/05/11 06:56:13;;;;;;;4.70;2.00;;;18.50;64.80;;;;;;5115675;28;20252;-63
2023/05/11 06:58:39;;;;;;;3.72;2.47;;;18.50;65.00;;;;;;5114968;28;20176;-62
2023/05/11 07:01:06;;;;;;;2.33;1.92;;;18.50;64.80;;;;;;5115616;28;20180;-64
2023/05/11 07:03:32;;;;;;;3.33;1.98;;;18.50;64.80;;;;;;5115922;28;20176;-62
2023/05/11 07:05:58;;;;;;;4.03;2.10;;;18.50;64.80;;;;;;5115022;28;20232;-63
2023/05/11 07:08:23;;;;;;;3.50;2.33;;;18.60;64.90;;;;;;5115316;28;20679;-63
2023/05/11 07:10:49;;;;;;;3.08;2.53;;;18.60;64.80;;;;;;5115476;28;20593;-62
2023/05/11 07:13:14;;;;;;;2.08;1.70;;;18.60;64.80;;;;;;5113250;28;20252;-61
2023/05/11 07:15:40;;;;;;;1.83;1.63;;;18.70;64.90;;;;;;5115422;28;20268;-61
2023/05/11 07:18:05;;;;;;;3.22;1.90;;;18.70;64.90;;;;;;5115371;28;20252;-62
2023/05/11 07:20:31;;;;;;;1.70;1.60;;;18.70;64.90;;;;;;5114716;28;20263;-62
2023/05/11 07:22:58;;;;;;;3.03;1.80;;;18.70;64.90;;;;;;5115120;28;20256;-62
2023/05/11 07:25:24;;;;;;;2.80;2.03;;;18.70;64.90;;;;;;5114992;28;20248;-63
2023/05/11 07:27:49;;;;;;;2.00;1.80;;;18.70;64.90;;;;;;5114866;28;20271;-64
2023/05/11 07:30:15;;;;;;;1.92;1.80;;;18.70;64.90;;;;;;5115169;28;20646;-64
2023/05/11 07:32:40;;;;;;;1.60;1.50;;;18.70;64.90;;;;;;5115176;28;20536;-64
2023/05/11 07:35:06;;;;;;;1.98;1.88;;;18.70;64.90;;;;;;5114105;28;20173;-62
2023/05/11 07:37:32;;;;;;;2.17;1.98;;;18.70;65.00;;;;;;5115393;28;20174;-64
2023/05/11 07:39:57;;;;;;;2.05;1.90;;;18.70;64.90;;;;;;5114416;28;20280;-63
2023/05/11 07:42:23;;;;;;;2.30;1.83;;;18.70;65.00;;;;;;5114509;28;20173;-63
2023/05/11 07:44:48;;;;;;;1.98;1.88;;;18.70;65.00;;;;;;5115006;28;20180;-63
2023/05/11 07:47:15;;;;;;;1.75;1.50;;;18.80;65.10;;;;;;5113753;28;20592;-63
2023/05/11 07:49:41;;;;;;;1.83;1.73;;;18.80;65.90;;;;;;5114823;28;20194;-63
2023/05/11 07:52:06;;;;;;;1.92;1.75;;;18.80;64.90;;;;;;5114623;27;20173;-63
2023/05/11 07:54:32;;;;;;;1.75;1.65;;;18.80;64.80;;;;;;5112769;28;20181;-63
2023/05/11 07:56:57;;;;;;;2.75;1.60;;;18.80;64.50;;;;;;5113966;28;20169;-62
2023/05/11 07:59:23;;;;;;;2.05;1.75;;;18.90;64.40;;;;;;5114535;28;20165;-63
2023/05/11 08:01:48;;;;;;;2.30;2.10;;;19.00;64.20;;;;;;5114045;28;20177;-63
2023/05/11 08:04:14;;;;;;;2.50;2.00;;;19.00;64.00;;;;;;5114365;28;20232;-64
2023/05/11 08:06:39;;;;;;;2.55;1.77;;;19.00;64.00;;;;;;5114290;28;20667;-64
2023/05/11 08:09:05;;;;;;;5.13;1.95;;;19.00;64.10;;;;;;5113588;28;20169;-63
2023/05/11 08:11:30;;;;;;;2.42;1.83;;;19.00;64.30;;;;;;5114607;28;20272;-63
2023/05/11 08:13:56;;;;;;;1.80;1.70;;;18.90;64.40;;;;;;5114553;28;20287;-62
2023/05/11 08:16:21;;;;;;;2.20;1.70;;;18.90;64.50;;;;;;5113233;28;20207;-63
2023/05/11 08:18:47;;;;;;;1.90;1.80;;;18.90;64.60;;;;;;5114529;28;20169;-62
2023/05/11 08:21:13;;;;;;;2.30;2.17;;;18.90;64.50;;;;;;5113968;28;20208;-62
2023/05/11 08:23:38;;;;;;;1.70;1.60;;;18.90;64.50;;;;;;5113315;28;20673;-63
2023/05/11 08:26:04;;;;;;;2.00;1.80;;;18.90;64.50;;;;;;5113984;28;20643;-63
2023/05/11 08:28:29;;;;;;;1.95;1.75;;;19.00;64.50;;;;;;5114249;28;20181;-64
2023/05/11 08:30:56;;;;;;;1.90;1.80;;;19.00;64.40;;;;;;5113417;28;20200;-64
2023/05/11 08:33:21;;;;;;;1.60;1.50;;;19.10;64.20;;;;;;5113913;28;20181;-64
2023/05/11 08:35:47;;;;;;;1.95;1.75;;;19.10;64.20;;;;;;5114136;28;20176;-63
2023/05/11 08:38:13;;;;;;;1.67;1.58;;;19.00;64.10;;;;;;5111676;28;20173;-63
2023/05/11 08:40:45;;;;;;;2.05;1.70;;;19.10;64.10;;;;;;5114160;28;20180;-63
2023/05/11 08:43:11;;;;;;;1.52;1.42;;;19.10;64.00;;;;;;5113849;28;20192;-63
2023/05/11 08:45:36;;;;;;;2.33;1.77;;;19.20;63.80;;;;;;5111906;28;20169;-63
2023/05/11 08:48:02;;;;;;;2.00;1.90;;;19.20;63.70;;;;;;5114034;28;20177;-63
2023/05/11 08:50:27;;;;;;;2.10;1.52;;;19.20;63.90;;;;;;5111478;28;20230;-63
2023/05/11 08:52:53;;;;;;;1.80;1.70;;;19.20;64.00;;;;;;5113603;28;20183;-63
2023/05/11 08:55:19;;;;;;;1.90;1.80;;;19.20;64.00;;;;;;5113593;28;20264;-63
2023/05/11 08:57:45;;;;;;;1.70;1.60;;;19.10;64.10;;;;;;5113059;28;20181;-63
2023/05/11 09:00:11;;;;;;;1.70;1.60;;;19.10;64.10;;;;;;5095294;28;20746;-63
2023/05/11 09:02:36;;;;;;;2.38;1.80;;;19.10;64.20;;;;;;5112226;28;20219;-64
2023/05/11 09:05:03;;;;;;;2.03;1.83;;;19.10;64.30;;;;;;5094784;28;20196;-63
2023/05/11 09:07:28;;;;;;;3.30;1.90;;;19.10;64.40;;;;;;5112930;28;20205;-63
2023/05/11 09:09:55;;;;;;;1.70;1.60;;;19.00;64.40;;;;;;5112293;28;20646;-63
2023/05/11 09:12:24;;;;;;;1.77;1.67;;;19.00;64.50;;;;;;5112521;28;20178;-62
2023/05/11 09:14:51;;;;;;;1.75;1.65;;;19.00;64.60;;;;;;5113530;28;20253;-62
2023/05/11 09:17:17;;;;;;;1.88;1.65;;;19.00;64.70;;;;;;5113265;28;20306;-61
2023/05/11 09:20:05;;;;;;;1.80;1.65;;;18.90;64.60;;;;;;5112655;28;20267;-62
2023/05/11 09:22:34;;;;;;;1.52;1.42;;;18.90;64.70;;;;;;5113206;28;20755;-62
2023/05/11 09:25:02;;;;;;;2.15;1.70;;;18.90;64.70;;;;;;5113546;28;20173;-62
2023/05/11 09:27:28;;;;;;;1.75;1.65;;;18.90;64.70;;;;;;5112187;28;20220;-62
2023/05/11 09:29:53;;;;;;;1.58;1.48;;;18.90;64.70;;;;;;5113350;28;20177;-63
2023/05/11 09:32:19;;;;;;;1.70;1.60;;;18.90;64.70;;;;;;5112958;28;20616;-63
2023/05/11 09:34:44;;;;;;;2.10;1.80;;;18.90;64.60;;;;;;5112381;28;20168;-63
2023/05/11 09:37:17;;;;;;;2.03;1.65;;;19.00;64.60;;;;;;5113177;28;20234;-63
2023/05/11 09:39:42;;;;;;;1.60;1.50;;;18.90;64.40;;;;;;5112514;28;20643;-62
2023/05/11 09:42:20;;;;;;;2.08;1.88;;;18.90;64.40;;;;;;5112794;28;20212;-62
2023/05/11 09:44:46;;;;;;;2.55;1.52;;;19.00;64.40;;;;;;5113118;28;20183;-62
2023/05/11 09:47:15;;;;;;;1.80;1.70;;;19.00;64.40;;;;;;5112050;28;20205;-62
2023/05/11 09:49:44;;;;;;;1.88;1.77;;;19.00;64.30;;;;;;5113299;28;20185;-63
2023/05/11 09:52:14;;;;;;;1.75;1.65;;;19.00;64.20;;;;;;5112815;28;20177;-62
2023/05/11 09:54:44;;;;;;;1.90;1.80;;;19.10;64.20;;;;;;5112541;28;20253;-63
2023/05/11 09:57:26;;;;;;;2.08;1.90;;;19.10;64.10;;;;;;5112744;28;20204;-62
2023/05/11 09:59:52;;;;;;;1.83;1.70;;;19.10;64.10;;;;;;5113279;28;20179;-63
2023/05/11 10:02:23;;;;;;;2.03;1.73;;;19.10;64.00;;;;;;5111943;28;20173;-63
2023/05/11 10:04:50;;;;;;;1.95;1.83;;;19.20;64.10;;;;;;5113052;28;20586;-63
2023/05/11 10:07:25;;;;;;;1.85;1.75;;;19.20;64.00;;;;;;5112591;28;20288;-64
2023/05/11 10:09:55;;;;;;;2.20;2.00;;;19.20;64.00;;;;;;5112096;28;20184;-62
2023/05/11 10:12:22;;;;;;;1.80;1.70;;;19.20;63.90;;;;;;5112501;28;20175;-62
2023/05/11 10:14:50;;;;;;;1.88;1.77;;;19.20;63.90;;;;;;5112274;28;20256;-62
2023/05/11 10:17:15;;;;;;;2.00;1.83;;;19.20;64.00;;;;;;5111428;28;20193;-61
2023/05/11 10:19:41;;;;;;;1.73;1.63;;;19.20;64.00;;;;;;5113152;28;20173;-62
2023/05/11 10:22:06;;;;;;;2.17;1.98;;;19.10;64.00;;;;;;5097403;28;20174;-63
2023/05/11 10:24:32;;;;;;;1.88;1.77;;;19.10;64.90;;;;;;5115324;28;20177;-62
2023/05/11 10:26:58;;;;;;;1.77;1.67;;;19.10;64.00;;;;;;5116494;28;20606;-63
2023/05/11 10:29:23;;;;;;;2.10;2.00;;;19.20;64.00;;;;;;5115600;28;20176;-63
2023/05/11 10:31:50;;;;;;;1.70;1.60;;;19.20;64.00;;;;;;5115261;28;20204;-63
2023/05/11 10:34:16;;;;;;;2.10;1.70;;;19.20;63.90;;;;;;5114982;28;20266;-63
2023/05/11 10:36:42;;;;;;;1.95;1.83;;;19.20;63.90;;;;;;5115663;28;20201;-60
2023/05/11 10:39:07;;;;;;;2.20;2.08;;;19.20;63.90;;;;;;5097527;28;20177;-61
2023/05/11 10:41:55;;;;;;;2.22;2.13;;;19.20;63.90;;;;;;5116125;28;20169;-61
2023/05/11 10:44:42;;;;;;;2.58;2.00;;;19.30;64.00;;;;;;5099124;28;20181;-61
2023/05/11 10:47:31;;;;;;;2.20;1.85;;;19.30;64.00;;;;;;5115485;27;20288;-61
2023/05/11 10:50:21;;;;;;;2.28;1.80;;;19.30;63.90;;;;;;5113783;28;20193;-61
2023/05/11 10:53:01;;;;;;;2.88;1.90;;;19.30;63.90;;;;;;5114686;28;20169;-62
2023/05/11 10:55:33;;;;;;;3.97;1.75;;;19.30;63.90;;;;;;5114214;28;20176;-62
2023/05/11 10:58:16;;;;;;;2.33;2.13;;;19.30;63.90;;;;;;5113559;28;20181;-63
2023/05/11 11:01:08;;;;;;;1.92;1.83;;;19.30;64.00;;;;;;5099231;28;20255;-62
2023/05/11 11:03:33;;;;;;;2.00;1.88;;;19.30;63.90;;;;;;5114696;28;20196;-63
2023/05/11 11:05:59;;;;;;;3.33;1.80;;;19.30;64.00;;;;;;5114842;28;20644;-63
2023/05/11 11:08:25;;;;;;;2.15;1.80;;;19.30;64.10;;;;;;5115013;28;20245;-63
2023/05/11 11:10:50;;;;;;;1.83;1.63;;;19.30;64.10;;;;;;5115701;28;20620;-62
2023/05/11 11:13:17;;;;;;;2.22;2.00;;;19.30;64.10;;;;;;5113254;28;20686;-63
2023/05/11 11:15:54;;;;;;;2.90;1.90;;;19.30;64.20;;;;;;5115388;28;20177;-66
2023/05/11 11:18:22;;;;;;;1.98;1.80;;;19.30;64.40;;;;;;5114533;28;20203;-61
2023/05/11 11:20:52;;;;;;;3.47;2.00;;;19.30;64.40;;;;;;5115270;28;20199;-61
2023/05/11 11:23:40;;;;;;;2.35;2.15;;;19.20;64.40;;;;;;5114931;28;20630;-61
2023/05/11 11:26:06;;;;;;;1.95;1.70;;;19.20;64.40;;;;;;5114167;28;20211;-62
2023/05/11 11:28:55;;;;;;;2.38;1.80;;;19.20;64.40;;;;;;5115348;28;20200;-63
2023/05/11 11:31:28;;;;;;;2.28;1.65;;;19.20;64.40;;;;;;5115020;28;20301;-63
2023/05/11 11:33:57;;;;;;;3.28;1.83;;;19.20;64.50;;;;;;5114541;28;20177;-63
2023/05/11 11:36:53;;;;;;;3.30;2.20;;;19.10;64.50;;;;;;5116427;27;20260;-63
2023/05/11 11:39:20;;;;;;;2.63;2.40;;;19.10;64.60;;;;;;5134586;27;20180;-62
2023/05/11 11:41:57;;;;;;;2.10;1.90;;;19.10;64.80;;;;;;5119914;27;20219;-61
2023/05/11 11:44:23;;;;;;;2.70;1.95;;;19.00;64.70;;;;;;5113796;28;20177;-62
2023/05/11 11:46:48;;;;;;;1.90;1.65;;;19.10;65.00;;;;;;5117822;27;20245;-63
2023/05/11 11:49:14;;;;;;;4.82;2.00;;;19.00;64.90;;;;;;5116634;27;20181;-62
2023/05/11 11:51:40;;;;;;;2.03;1.90;;;19.10;65.00;;;;;;5135305;27;20175;-63
2023/05/11 11:54:05;;;;;;;1.80;1.70;;;19.00;64.80;;;;;;5134228;27;20268;-63
2023/05/11 11:56:31;;;;;;;2.40;2.20;;;19.00;64.80;;;;;;5135400;27;20190;-63
2023/05/11 11:58:58;;;;;;;2.67;2.00;;;19.00;64.90;;;;;;5135352;27;20172;-64
2023/05/11 12:01:28;;;;;;;3.03;1.90;;;19.00;64.80;;;;;;5134283;27;20176;-63
2023/05/11 12:04:16;;;;;;;2.90;2.05;;;19.00;64.80;;;;;;5135177;27;20230;-63
2023/05/11 12:06:43;;;;;;;2.25;2.15;;;19.00;64.80;;;;;;5134987;27;20677;-63
2023/05/11 12:09:08;;;;;;;4.18;1.83;;;19.00;64.70;;;;;;5115983;27;20569;-63
2023/05/11 12:11:34;;;;;;;3.15;1.88;;;19.00;64.70;;;;;;5135043;27;20200;-62
2023/05/11 12:14:00;;;;;;;2.33;1.70;;;19.00;64.70;;;;;;5134923;27;20168;-63
2023/05/11 12:16:26;;;;;;;2.25;2.00;;;19.10;64.80;;;;;;5133956;27;20177;-61
2023/05/11 12:18:56;;;;;;;1.90;1.70;;;19.00;64.70;;;;;;5134587;27;20178;-60
2023/05/11 12:21:23;;;;;;;2.10;1.90;;;19.10;64.80;;;;;;5133762;27;20623;-60
2023/05/11 12:23:56;;;;;;;2.22;1.77;;;19.10;64.80;;;;;;5134610;27;20232;-60
2023/05/11 12:26:22;;;;;;;2.63;1.90;;;19.10;64.80;;;;;;5134338;27;20295;-60
2023/05/11 12:28:49;;;;;;;2.47;2.00;;;19.20;64.80;;;;;;5134151;27;20217;-61
2023/05/11 12:31:17;;;;;;;1.70;1.60;;;19.20;64.70;;;;;;5134564;27;20263;-62
2023/05/11 12:33:51;;;;;;;2.88;2.03;;;19.20;64.70;;;;;;5134529;27;20192;-61
2023/05/11 12:36:17;;;;;;;2.40;2.05;;;19.10;64.50;;;;;;5133616;27;20229;-61
2023/05/11 12:38:46;;;;;;;1.95;1.85;;;19.20;64.60;;;;;;5125581;27;20181;-60
2023/05/11 12:41:20;;;;;;;3.80;1.92;;;19.20;64.50;;;;;;5113336;28;20177;-60
2023/05/11 12:43:45;;;;;;;2.10;1.85;;;19.30;64.60;;;;;;5112799;28;20181;-61
2023/05/11 12:46:11;;;;;;;2.40;1.95;;;19.30;64.60;;;;;;5113216;28;20196;-61
2023/05/11 12:48:36;;;;;;;3.90;1.83;;;19.30;64.70;;;;;;5113722;28;20173;-63